createdAt,value
2023-07-14T00:01:22.242Z,1.80
2023-07-14T00:03:49.822Z,1.80
2023-07-14T00:06:17.940Z,1.65
2023-07-14T00:08:45.296Z,1.33
2023-07-14T00:11:20.776Z,2.00
2023-07-14T00:13:49.074Z,1.35
2023-07-14T00:16:26.626Z,1.92
2023-07-14T00:18:53.337Z,1.77
2023-07-14T00:21:25.450Z,1.73
2023-07-14T00:23:59.053Z,1.70
2023-07-14T00:26:28.028Z,1.42
2023-07-14T00:28:54.857Z,1.85
2023-07-14T00:31:23.386Z,1.67
2023-07-14T00:33:58.947Z,1.75
2023-07-14T00:36:26.036Z,1.80
2023-07-14T00:38:52.586Z,1.38
2023-07-14T00:41:22.702Z,1.25
2023-07-14T00:43:50.568Z,1.15
2023-07-14T00:46:32.999Z,1.35
2023-07-14T00:49:06.171Z,1.30
2023-07-14T00:51:36.887Z,1.50
2023-07-14T00:54:03.818Z,1.35
2023-07-14T00:56:48.528Z,1.40
2023-07-14T00:59:17.856Z,1.95
2023-07-14T01:02:12.126Z,1.40
2023-07-14T01:04:42.666Z,1.83
2023-07-14T01:07:11.707Z,1.38
2023-07-14T01:09:40.223Z,1.17
2023-07-14T01:12:08.426Z,1.77
2023-07-14T01:14:46.226Z,1.42
2023-07-14T01:17:13.366Z,1.27
2023-07-14T01:19:56.476Z,1.30
2023-07-14T01:22:28.868Z,1.35
2023-07-14T01:25:07.383Z,1.17
2023-07-14T01:27:34.533Z,1.60
2023-07-14T01:30:01.617Z,1.75
2023-07-14T01:32:40.506Z,1.05
2023-07-14T01:35:09.136Z,1.30
2023-07-14T01:37:37.103Z,1.13
2023-07-14T01:40:14.337Z,1.05
2023-07-14T01:42:49.527Z,1.58
2023-07-14T01:45:21.236Z,1.10
2023-07-14T01:47:52.891Z,1.55
2023-07-14T01:50:37.168Z,1.50
2023-07-14T01:53:10.134Z,1.45
2023-07-14T01:55:39.280Z,1.20
2023-07-14T01:58:12.230Z,1.33
2023-07-14T02:00:40.642Z,0.85
2023-07-14T02:03:10.975Z,0.90
2023-07-14T02:05:41.904Z,1.10
2023-07-14T02:08:25.432Z,1.13
2023-07-14T02:10:52.639Z,1.25
2023-07-14T02:13:21.219Z,0.80
2023-07-14T02:15:48.615Z,1.00
2023-07-14T02:18:21.186Z,1.25
2023-07-14T02:20:48.980Z,1.45
2023-07-14T02:23:23.709Z,0.93
2023-07-14T02:26:02.218Z,0.90
2023-07-14T02:28:28.853Z,0.80
2023-07-14T02:31:20.255Z,1.20
2023-07-14T02:33:49.718Z,0.82
2023-07-14T02:36:54.823Z,0.90
2023-07-14T02:41:49.811Z,1.23
2023-07-14T02:44:19.036Z,1.00
2023-07-14T02:46:52.218Z,1.00
2023-07-14T02:49:18.899Z,1.03
2023-07-14T02:51:45.522Z,1.05
2023-07-14T02:54:12.227Z,1.02
2023-07-14T02:56:39.362Z,1.15
2023-07-14T02:59:07.406Z,1.20
2023-07-14T03:01:35.037Z,1.00
2023-07-14T03:04:01.952Z,1.30
2023-07-14T03:06:29.249Z,0.93
2023-07-14T03:08:55.917Z,1.30
2023-07-14T03:11:22.658Z,0.90
2023-07-14T03:13:49.312Z,1.15
2023-07-14T03:16:16.849Z,1.25
2023-07-14T03:18:43.879Z,1.20
2023-07-14T03:21:11.246Z,1.30
2023-07-14T03:23:38.085Z,0.90
2023-07-14T03:26:08.280Z,0.80
2023-07-14T03:28:36.544Z,1.17
2023-07-14T03:31:03.688Z,0.93
2023-07-14T03:33:31.790Z,0.82
2023-07-14T03:36:06.109Z,0.75
2023-07-14T03:38:59.769Z,1.00
2023-07-14T03:41:26.458Z,0.90
2023-07-14T03:43:53.038Z,1.00
2023-07-14T03:46:19.598Z,0.95
2023-07-14T03:48:46.228Z,1.23
2023-07-14T03:51:13.220Z,0.95
2023-07-14T03:53:40.056Z,0.88
2023-07-14T03:56:06.648Z,0.93
2023-07-14T03:58:33.257Z,0.75
2023-07-14T04:01:03.068Z,1.10
2023-07-14T04:03:29.884Z,0.70
2023-07-14T04:05:56.627Z,0.80
2023-07-14T04:08:23.625Z,0.98
2023-07-14T04:10:50.431Z,0.85
2023-07-14T04:13:17.027Z,0.73
2023-07-14T04:15:44.083Z,0.40
2023-07-14T04:18:10.702Z,1.00
2023-07-14T04:20:37.314Z,0.80
2023-07-14T04:23:04.076Z,0.95
2023-07-14T04:25:30.764Z,0.65
2023-07-14T04:27:57.330Z,0.80
2023-07-14T04:30:23.909Z,0.75
2023-07-14T04:32:51.459Z,1.10
2023-07-14T04:35:18.513Z,0.90
2023-07-14T04:37:45.503Z,0.70
2023-07-14T04:40:30.018Z,0.80
2023-07-14T04:42:59.197Z,0.82
2023-07-14T04:45:25.836Z,0.70
2023-07-14T04:47:53.520Z,0.88
2023-07-14T04:50:20.101Z,0.90
2023-07-14T04:52:46.767Z,0.93
2023-07-14T04:55:13.438Z,0.70
2023-07-14T04:57:39.979Z,0.82
2023-07-14T05:00:07.220Z,0.80
2023-07-14T05:02:37.167Z,1.15
2023-07-14T05:05:22.407Z,0.70
2023-07-14T05:07:50.100Z,1.10
2023-07-14T05:10:18.334Z,0.93
2023-07-14T05:12:45.131Z,0.70
2023-07-14T05:15:12.221Z,0.93
2023-07-14T05:17:40.162Z,0.75
2023-07-14T05:20:07.955Z,0.80
2023-07-14T05:22:34.723Z,0.70
2023-07-14T05:25:01.362Z,0.60
2023-07-14T05:27:27.999Z,0.80
2023-07-14T05:29:55.412Z,0.60
2023-07-14T05:32:23.277Z,0.70
2023-07-14T05:34:50.155Z,0.60
2023-07-14T05:37:17.690Z,0.80
2023-07-14T05:39:45.022Z,0.65
2023-07-14T05:42:11.868Z,0.70
2023-07-14T05:44:38.900Z,1.00
2023-07-14T05:47:05.806Z,0.80
2023-07-14T05:49:33.175Z,1.00
2023-07-14T05:51:59.881Z,0.90
2023-07-14T05:54:26.567Z,1.23
2023-07-14T05:56:53.447Z,0.82
2023-07-14T05:59:20.584Z,1.08
2023-07-14T06:01:47.311Z,1.52
2023-07-14T06:04:14.173Z,1.33
2023-07-14T06:06:40.799Z,1.33
2023-07-14T06:09:07.431Z,1.00
2023-07-14T06:11:34.345Z,1.33
2023-07-14T06:14:00.914Z,1.85
2023-07-14T06:16:27.822Z,0.90
2023-07-14T06:18:55.195Z,1.52
2023-07-14T06:21:22.035Z,1.50
2023-07-14T06:23:48.701Z,0.80
2023-07-14T06:26:15.986Z,0.90
2023-07-14T06:28:43.827Z,0.80
2023-07-14T06:31:13.855Z,0.80
2023-07-14T06:33:42.001Z,1.40
2023-07-14T06:36:08.702Z,0.98
2023-07-14T06:38:35.894Z,0.80
2023-07-14T06:41:05.832Z,0.70
2023-07-14T06:43:33.784Z,0.90
2023-07-14T06:46:00.694Z,0.60
2023-07-14T06:48:27.990Z,0.98
2023-07-14T06:50:55.167Z,0.98
2023-07-14T06:53:22.410Z,0.80
2023-07-14T06:55:49.051Z,1.00
2023-07-14T06:58:15.935Z,1.00
2023-07-14T07:00:42.605Z,0.98
2023-07-14T07:03:09.337Z,0.90
2023-07-14T07:05:43.149Z,0.75
2023-07-14T07:08:14.609Z,0.65
2023-07-14T07:10:42.672Z,0.80
2023-07-14T07:13:10.735Z,1.02
2023-07-14T07:15:37.427Z,1.25
2023-07-14T07:18:04.719Z,0.90
2023-07-14T07:20:31.623Z,0.80
2023-07-14T07:22:58.375Z,0.98
2023-07-14T07:25:25.417Z,0.70
2023-07-14T07:27:52.020Z,1.38
2023-07-14T07:30:18.800Z,0.77
2023-07-14T07:32:47.990Z,0.73
2023-07-14T07:35:15.422Z,0.80
2023-07-14T07:37:42.141Z,0.70
2023-07-14T07:40:09.444Z,1.10
2023-07-14T07:42:36.410Z,0.95
2023-07-14T07:45:03.966Z,0.98
2023-07-14T07:47:30.666Z,0.70
2023-07-14T07:49:57.689Z,0.80
2023-07-14T07:52:25.434Z,1.33
2023-07-14T07:54:52.096Z,0.90
2023-07-14T07:57:18.691Z,1.15
2023-07-14T07:59:45.311Z,1.02
2023-07-14T08:02:13.747Z,0.57
2023-07-14T08:04:40.661Z,0.80
2023-07-14T08:07:13.973Z,0.70
2023-07-14T08:09:40.735Z,0.80
2023-07-14T08:12:08.384Z,0.82
2023-07-14T08:14:53.624Z,1.00
2023-07-14T08:17:28.662Z,1.30
2023-07-14T08:19:55.474Z,0.93
2023-07-14T08:22:23.569Z,0.80
2023-07-14T08:24:50.745Z,0.88
2023-07-14T08:27:17.357Z,0.60
2023-07-14T08:29:44.122Z,0.60
2023-07-14T08:32:11.015Z,0.80
2023-07-14T08:34:37.616Z,0.70
2023-07-14T08:37:05.897Z,0.98
2023-07-14T08:39:34.204Z,1.10
2023-07-14T08:42:08.309Z,0.77
2023-07-14T08:47:53.690Z,0.90
2023-07-14T08:50:27.058Z,1.33
2023-07-14T08:52:59.032Z,0.90
2023-07-14T08:55:29.620Z,0.90
2023-07-14T08:58:01.072Z,0.70
2023-07-14T09:00:45.631Z,0.80
2023-07-14T09:03:26.222Z,1.00
2023-07-14T09:05:58.367Z,0.88
2023-07-14T09:08:28.141Z,0.90
2023-07-14T09:11:29.078Z,0.90
2023-07-14T09:14:11.030Z,0.73
2023-07-14T09:16:45.561Z,0.70
2023-07-14T09:19:34.530Z,0.98
2023-07-14T09:22:31.117Z,0.85
2023-07-14T09:25:00.642Z,0.80
2023-07-14T09:27:29.803Z,0.70
2023-07-14T09:29:58.534Z,0.73
2023-07-14T09:32:33.934Z,1.10
2023-07-14T09:35:10.584Z,0.90
2023-07-14T09:37:48.127Z,0.80
2023-07-14T09:40:20.010Z,1.02
2023-07-14T09:42:53.564Z,0.60
2023-07-14T09:45:23.161Z,0.85
2023-07-14T09:47:59.443Z,1.00
2023-07-14T09:50:27.287Z,1.02
2023-07-14T09:52:58.690Z,1.05
2023-07-14T09:55:26.238Z,0.82
2023-07-14T09:58:09.933Z,1.10
2023-07-14T10:00:42.313Z,1.35
2023-07-14T10:03:12.672Z,1.00
2023-07-14T10:05:48.695Z,1.00
2023-07-14T10:08:30.346Z,0.82
2023-07-14T10:10:59.322Z,1.02
2023-07-14T10:13:28.671Z,0.90
2023-07-14T10:16:05.410Z,0.88
2023-07-14T10:18:32.183Z,0.88
2023-07-14T10:21:07.407Z,1.25
2023-07-14T10:23:35.523Z,1.30
2023-07-14T10:26:06.068Z,2.25
2023-07-14T10:28:36.823Z,1.25
2023-07-14T10:31:26.240Z,1.33
2023-07-14T10:34:08.345Z,1.00
2023-07-14T10:36:38.969Z,0.63
2023-07-14T10:39:17.201Z,0.88
2023-07-14T10:41:48.774Z,1.00
2023-07-14T10:44:29.468Z,0.98
2023-07-14T10:47:10.780Z,0.95
2023-07-14T10:49:43.812Z,0.90
2023-07-14T10:52:18.943Z,1.00
2023-07-14T10:55:00.522Z,1.10
2023-07-14T10:57:29.979Z,0.85
2023-07-14T11:00:15.964Z,0.85
2023-07-14T11:02:46.578Z,0.93
2023-07-14T11:05:17.261Z,0.80
2023-07-14T11:07:43.994Z,0.85
2023-07-14T11:10:25.618Z,1.17
2023-07-14T11:13:05.427Z,0.80
2023-07-14T11:15:46.370Z,0.95
2023-07-14T11:18:24.024Z,0.73
2023-07-14T11:21:15.203Z,0.65
2023-07-14T11:23:57.481Z,0.90
2023-07-14T11:26:50.263Z,0.80
2023-07-14T11:29:23.941Z,1.15
2023-07-14T11:34:41.196Z,1.23
2023-07-14T11:37:45.320Z,0.90
2023-07-14T11:40:22.222Z,1.05
2023-07-14T11:43:00.172Z,0.90
2023-07-14T11:45:34.170Z,1.25
2023-07-14T11:48:02.196Z,0.95
2023-07-14T11:53:23.230Z,1.52
2023-07-14T11:55:52.726Z,1.20
2023-07-14T11:58:22.045Z,1.00
2023-07-14T12:00:57.272Z,0.80
2023-07-14T12:03:42.223Z,1.33
2023-07-14T12:06:21.309Z,1.40
2023-07-14T12:09:12.463Z,1.05
2023-07-14T12:11:43.815Z,8.77
2023-07-14T12:14:31.759Z,1.60
2023-07-14T12:17:00.335Z,1.23
2023-07-14T12:19:51.776Z,0.95
2023-07-14T12:22:37.874Z,1.35
2023-07-14T12:25:14.962Z,0.93
2023-07-14T12:27:49.920Z,0.70
2023-07-14T12:30:31.286Z,0.85
2023-07-14T12:33:13.483Z,1.05
2023-07-14T12:35:40.437Z,1.13
2023-07-14T12:38:26.570Z,0.95
2023-07-14T12:40:56.094Z,0.93
2023-07-14T12:43:44.616Z,0.85
2023-07-14T12:46:40.222Z,1.02
2023-07-14T12:49:20.225Z,1.13
2023-07-14T12:51:47.741Z,0.90
2023-07-14T12:54:17.852Z,1.48
2023-07-14T12:56:44.599Z,1.33
2023-07-14T12:59:19.524Z,0.75
2023-07-14T13:01:48.192Z,1.05
2023-07-14T13:04:17.077Z,0.80
2023-07-14T13:06:46.048Z,0.80
2023-07-14T13:09:27.370Z,0.80
2023-07-14T13:11:54.853Z,1.10
2023-07-14T13:14:24.021Z,0.88
2023-07-14T13:16:54.513Z,0.80
2023-07-14T13:19:32.486Z,0.80
2023-07-14T13:22:01.548Z,1.10
2023-07-14T13:24:30.309Z,1.10
2023-07-14T13:27:00.118Z,0.85
2023-07-14T13:29:32.863Z,1.27
2023-07-14T13:32:15.813Z,0.88
2023-07-14T13:34:44.270Z,0.93
2023-07-14T13:37:14.075Z,0.80
2023-07-14T13:39:42.330Z,0.90
2023-07-14T13:42:30.540Z,0.60
2023-07-14T13:45:00.033Z,0.80
2023-07-14T13:47:29.497Z,1.08
2023-07-14T13:49:59.533Z,0.80
2023-07-14T13:52:35.079Z,0.80
2023-07-14T13:55:05.225Z,0.80
2023-07-14T13:57:32.706Z,1.08
2023-07-14T14:00:00.356Z,1.00
2023-07-14T14:02:37.332Z,0.60
2023-07-14T14:05:10.134Z,0.93
2023-07-14T14:07:36.752Z,1.00
2023-07-14T14:10:09.883Z,1.23
2023-07-14T14:12:36.509Z,0.82
2023-07-14T14:15:03.256Z,0.90
2023-07-14T14:17:44.162Z,1.20
2023-07-14T14:20:19.074Z,1.00
2023-07-14T14:22:47.572Z,0.98
2023-07-14T14:25:21.086Z,1.10
2023-07-14T14:27:49.663Z,1.10
2023-07-14T14:30:17.329Z,1.10
2023-07-14T14:32:46.049Z,1.00
2023-07-14T14:35:33.729Z,1.05
2023-07-14T14:38:09.720Z,1.10
2023-07-14T14:40:36.533Z,1.08
2023-07-14T14:43:13.921Z,0.85
2023-07-14T14:45:40.585Z,0.80
2023-07-14T14:48:29.522Z,1.33
2023-07-14T14:51:01.044Z,1.27
2023-07-14T14:53:31.190Z,1.13
2023-07-14T14:56:01.398Z,1.20
2023-07-14T14:58:31.035Z,0.95
2023-07-14T15:01:33.306Z,1.30
2023-07-14T15:04:01.945Z,1.10
2023-07-14T15:06:28.718Z,1.23
2023-07-14T15:08:55.316Z,1.08
2023-07-14T15:11:22.126Z,1.33
2023-07-14T15:13:48.722Z,0.85
2023-07-14T15:16:17.818Z,1.02
2023-07-14T15:18:44.847Z,0.95
2023-07-14T15:21:17.928Z,1.17
2023-07-14T15:26:19.507Z,1.40
2023-07-14T15:28:46.878Z,1.35
2023-07-14T15:31:17.932Z,1.48
2023-07-14T15:33:45.296Z,1.00
2023-07-14T15:36:14.436Z,1.00
2023-07-14T15:38:41.489Z,1.13
2023-07-14T15:41:24.826Z,1.08
2023-07-14T15:46:22.840Z,1.00
2023-07-14T15:48:54.134Z,0.95
2023-07-14T15:51:29.552Z,1.17
2023-07-14T15:53:59.989Z,0.93
2023-07-14T15:56:26.993Z,1.20
2023-07-14T15:58:54.037Z,0.80
2023-07-14T16:01:29.939Z,1.25
2023-07-14T16:04:00.587Z,0.93
2023-07-14T16:06:27.340Z,0.98
2023-07-14T16:08:56.297Z,1.13
2023-07-14T16:11:30.765Z,1.17
2023-07-14T16:13:58.623Z,1.10
2023-07-14T16:16:26.143Z,0.93
2023-07-14T16:18:53.002Z,1.35
2023-07-14T16:21:29.498Z,1.17
2023-07-14T16:23:57.827Z,1.10
2023-07-14T16:26:25.820Z,1.58
2023-07-14T16:28:52.847Z,1.35
2023-07-14T16:31:20.233Z,1.00
2023-07-14T16:33:47.528Z,1.20
2023-07-14T16:36:17.011Z,1.15
2023-07-14T16:38:43.806Z,1.75
2023-07-14T16:41:12.121Z,1.30
2023-07-14T16:43:38.724Z,1.17
2023-07-14T16:46:05.487Z,0.93
2023-07-14T16:48:32.097Z,0.95
2023-07-14T16:50:58.714Z,1.05
2023-07-14T16:53:27.455Z,1.05
2023-07-14T16:55:54.048Z,1.00
2023-07-14T16:58:27.331Z,1.77
2023-07-14T17:00:55.661Z,1.00
2023-07-14T17:03:29.465Z,1.10
2023-07-14T17:05:59.494Z,1.30
2023-07-14T17:08:29.751Z,1.27
2023-07-14T17:11:00.101Z,1.08
2023-07-14T17:13:29.434Z,1.20
2023-07-14T17:15:58.812Z,1.40
2023-07-14T17:18:28.868Z,1.27
2023-07-14T17:20:57.621Z,1.30
2023-07-14T17:23:31.086Z,1.23
2023-07-14T17:25:59.495Z,1.40
2023-07-14T17:28:28.253Z,1.55
2023-07-14T17:30:57.121Z,1.33
2023-07-14T17:33:28.314Z,1.08
2023-07-14T17:35:58.989Z,1.13
2023-07-14T17:38:30.338Z,1.60
2023-07-14T17:40:57.460Z,1.70
2023-07-14T17:43:24.935Z,1.38
2023-07-14T17:45:51.931Z,1.52
2023-07-14T17:48:19.226Z,1.58
2023-07-14T17:50:53.890Z,1.80
2023-07-14T17:53:26.489Z,1.63
2023-07-14T17:55:53.109Z,1.67
2023-07-14T17:58:22.401Z,1.75
2023-07-14T18:00:50.335Z,1.77
2023-07-14T18:03:31.535Z,1.73
2023-07-14T18:06:00.474Z,1.63
2023-07-14T18:08:28.848Z,2.03
2023-07-14T18:11:00.596Z,1.90
2023-07-14T18:13:40.170Z,1.50
2023-07-14T18:16:07.218Z,1.40
2023-07-14T18:18:33.936Z,2.03
2023-07-14T18:21:03.473Z,1.63
2023-07-14T18:23:32.948Z,1.63
2023-07-14T18:26:00.297Z,1.77
2023-07-14T18:28:30.909Z,1.85
2023-07-14T18:30:59.581Z,1.92
2023-07-14T18:33:31.765Z,2.08
2023-07-14T18:35:58.869Z,1.58
2023-07-14T18:38:27.656Z,1.90
2023-07-14T18:41:00.227Z,2.58
2023-07-14T18:43:37.129Z,1.80
2023-07-14T18:46:07.014Z,1.63
2023-07-14T18:48:34.990Z,1.83
2023-07-14T18:51:17.719Z,1.90
2023-07-14T18:53:48.222Z,1.70
2023-07-14T18:56:15.552Z,1.98
2023-07-14T18:58:43.286Z,2.42
2023-07-14T19:01:16.089Z,2.10
2023-07-14T19:03:46.085Z,2.30
2023-07-14T19:06:25.802Z,2.33
2023-07-14T19:08:54.738Z,2.47
2023-07-14T19:11:24.750Z,2.40
2023-07-14T19:13:52.288Z,2.40
2023-07-14T19:16:26.418Z,1.83
2023-07-14T19:18:54.536Z,2.42
2023-07-14T19:21:24.595Z,2.40
2023-07-14T19:23:51.381Z,2.45
2023-07-14T19:26:18.524Z,2.22
2023-07-14T19:28:47.394Z,2.30
2023-07-14T19:31:32.850Z,2.28
2023-07-14T19:34:18.670Z,2.50
2023-07-14T19:36:46.824Z,2.50
2023-07-14T19:39:14.469Z,2.90
2023-07-14T19:41:45.372Z,2.67
2023-07-14T19:44:13.029Z,2.47
2023-07-14T19:46:41.490Z,2.42
2023-07-14T19:49:08.718Z,2.47
2023-07-14T19:51:35.819Z,2.60
2023-07-14T19:54:02.974Z,2.20
2023-07-14T19:56:29.881Z,2.38
2023-07-14T19:58:57.450Z,2.55
2023-07-14T20:01:24.451Z,2.13
2023-07-14T20:03:51.221Z,2.13
2023-07-14T20:06:23.609Z,2.75
2023-07-14T20:08:54.425Z,2.20
2023-07-14T20:11:23.695Z,2.63
2023-07-14T20:13:51.116Z,2.95
2023-07-14T20:16:20.287Z,2.50
2023-07-14T20:18:49.420Z,2.92
2023-07-14T20:21:29.460Z,2.33
2023-07-14T20:24:02.127Z,3.13
2023-07-14T20:26:29.117Z,2.88
2023-07-14T20:28:55.784Z,2.72
2023-07-14T20:31:23.482Z,2.28
2023-07-14T20:33:54.247Z,2.10
2023-07-14T20:36:23.591Z,2.50
2023-07-14T20:38:50.892Z,2.28
2023-07-14T20:41:32.748Z,2.30
2023-07-14T20:44:01.146Z,2.35
2023-07-14T20:46:34.410Z,2.55
2023-07-14T20:49:16.292Z,2.70
2023-07-14T20:51:44.607Z,2.53
2023-07-14T20:54:14.349Z,2.47
2023-07-14T20:56:42.060Z,3.10
2023-07-14T20:59:08.686Z,3.10
2023-07-14T21:01:36.411Z,2.65
2023-07-14T21:04:18.688Z,3.05
2023-07-14T21:06:45.356Z,3.10
2023-07-14T21:09:12.870Z,2.92
2023-07-14T21:11:39.709Z,3.00
2023-07-14T21:14:10.962Z,3.28
2023-07-14T21:16:37.925Z,2.90
2023-07-14T21:19:04.762Z,3.22
2023-07-14T21:21:35.385Z,3.00
2023-07-14T21:24:10.862Z,3.33
2023-07-14T21:26:37.511Z,2.80
2023-07-14T21:29:06.657Z,2.92
2023-07-14T21:31:40.153Z,3.22
2023-07-14T21:34:18.606Z,3.58
2023-07-14T21:36:45.718Z,3.08
2023-07-14T21:39:14.636Z,3.10
2023-07-14T21:41:42.388Z,3.83
2023-07-14T21:44:14.451Z,3.83
2023-07-14T21:46:42.005Z,4.15
2023-07-14T21:49:13.409Z,3.63
2023-07-14T21:51:40.933Z,3.67
2023-07-14T21:54:11.628Z,3.85
2023-07-14T21:56:38.226Z,3.60
2023-07-14T21:59:12.231Z,3.47
2023-07-14T22:01:42.205Z,3.45
2023-07-14T22:04:19.361Z,3.83
2023-07-14T22:06:48.146Z,3.65
2023-07-14T22:09:16.486Z,4.18
2023-07-14T22:11:43.097Z,4.05
2023-07-14T22:14:22.103Z,3.90
2023-07-14T22:16:48.886Z,3.70
2023-07-14T22:19:17.540Z,4.68
2023-07-14T22:21:45.607Z,4.10
2023-07-14T22:24:16.236Z,4.13
2023-07-14T22:26:43.560Z,4.45
2023-07-14T22:29:10.938Z,3.90
2023-07-14T22:31:39.217Z,4.28
2023-07-14T22:34:14.995Z,4.95
2023-07-14T22:36:41.798Z,3.95
2023-07-14T22:39:19.604Z,4.25
2023-07-14T22:41:48.406Z,4.15
2023-07-14T22:44:18.779Z,4.20
2023-07-14T22:46:47.361Z,4.28
2023-07-14T22:49:14.610Z,3.65
2023-07-14T22:51:44.318Z,4.22
2023-07-14T22:54:13.559Z,4.25
2023-07-14T22:56:40.747Z,4.00
2023-07-14T22:59:07.820Z,3.83
2023-07-14T23:01:36.060Z,4.93
2023-07-14T23:04:04.667Z,3.83
2023-07-14T23:06:31.455Z,4.53
2023-07-14T23:08:58.097Z,3.45
2023-07-14T23:11:30.403Z,4.10
2023-07-14T23:13:57.017Z,3.85
2023-07-14T23:16:25.333Z,3.38
2023-07-14T23:18:55.791Z,3.42
2023-07-14T23:21:29.008Z,3.78
2023-07-14T23:23:57.459Z,3.60
2023-07-14T23:26:26.640Z,4.18
2023-07-14T23:28:56.933Z,3.28
2023-07-14T23:31:37.568Z,4.07
2023-07-14T23:34:11.922Z,3.90
2023-07-14T23:36:39.280Z,4.30
2023-07-14T23:39:07.519Z,4.18
2023-07-14T23:41:35.318Z,4.53
2023-07-14T23:44:03.963Z,4.68
2023-07-14T23:46:30.579Z,4.82
2023-07-14T23:48:58.129Z,4.13
2023-07-14T23:51:29.232Z,3.90
2023-07-14T23:53:57.204Z,4.30
2023-07-14T23:56:24.257Z,4.13
2023-07-14T23:58:51.597Z,4.25
